Terminal Aerodrome Forecast
Issued by NWS Lake Charles, LA

Home | Current Version | Previous Version | Text Only | Print | Product List | Glossary On
Versions: 1 2 3 4 5 6 7 8 9 10 11 12 13 14 15 16 17
000
FTUS44 KLCH 262000 AAA
TAFBPT
TAF AMD
KBPT 262002Z 2620/2718 12011KT 5SM BR VCSH OVC020
     FM270000 12012KT 4SM BR VCSH OVC007
     FM270600 13010KT 3SM BR VCSH OVC005
     FM270800 14008KT 2SM BR OVC005
      TEMPO 2708/2711 2SM -RA BR
     FM271200 14008KT 1SM -RA BR OVC005 PROB30 2714/2718 TSRA
      OVC008CB=

USA.gov is the U.S. government's official web portal to all federal, state and local government web resources and services.